Time;durP1;ratioP1;P1;durP2;ratioP2;P2;SDS_P1;SDS_P2;PMS_P1;PMS_P2;Temp;Humidity;BMP_temperature;BMP_pressure;BME280_temperature;BME280_humidity;BME280_pressure;Samples;Min_cycle;Max_cycle;Signal;HPM_P1;HPM_P2
2023/06/21 00:04:10;;;;;;;;;;;25.30;62.90;;;;;;10207536;28;92527;-66
2023/06/21 00:09:12;;;;;;;;;;;25.30;61.90;;;;;;10208627;28;93685;-66
2023/06/21 00:14:14;;;;;;;;;;;25.30;61.90;;;;;;10206904;28;97174;-65
2023/06/21 00:19:15;;;;;;;;;;;25.20;61.80;;;;;;10208240;28;93383;-65
2023/06/21 00:24:17;;;;;;;;;;;25.30;61.70;;;;;;10208018;28;93660;-65
2023/06/21 00:29:19;;;;;;;;;;;25.20;61.60;;;;;;10207377;28;94557;-65
2023/06/21 00:34:21;;;;;;;;;;;25.20;61.70;;;;;;10208227;28;93169;-65
2023/06/21 00:39:22;;;;;;;;;;;25.20;61.50;;;;;;10208291;28;94471;-65
2023/06/21 00:44:24;;;;;;;;;;;25.20;61.50;;;;;;10208226;28;93716;-65
2023/06/21 00:49:27;;;;;;;;;;;25.20;61.50;;;;;;10209324;28;94050;-65
2023/06/21 00:54:31;;;;;;;;;;;25.20;61.50;;;;;;10191157;28;93451;-66
2023/06/21 00:59:32;;;;;;;;;;;25.20;61.50;;;;;;10190003;28;93531;-66
2023/06/21 01:04:34;;;;;;;;;;;25.20;61.50;;;;;;10205335;28;95993;-65
2023/06/21 01:09:48;;;;;;;;;;;25.30;61.30;;;;;;10206684;28;93541;-65
2023/06/21 01:14:50;;;;;;;;;;;25.30;61.40;;;;;;10208005;28;94818;-65
2023/06/21 01:19:56;;;;;;;;;;;25.20;61.20;;;;;;10205967;28;94582;-65
2023/06/21 01:24:57;;;;;;;;;;;25.20;61.30;;;;;;10207288;28;94510;-66
2023/06/21 01:30:00;;;;;;;;;;;25.30;61.30;;;;;;10206771;28;93430;-65
2023/06/21 01:35:02;;;;;;;;;;;25.20;61.30;;;;;;10207208;28;94434;-65
2023/06/21 01:40:11;;;;;;;;;;;25.20;61.10;;;;;;10206583;28;92576;-65
2023/06/21 01:45:13;;;;;;;;;;;25.20;61.10;;;;;;10206138;28;93452;-65
2023/06/21 01:50:16;;;;;;;;;;;25.30;61.10;;;;;;10203871;28;92960;-65
2023/06/21 01:55:18;;;;;;;;;;;25.30;61.10;;;;;;10203670;28;95878;-65
2023/06/21 02:00:21;;;;;;;;;;;25.20;61.00;;;;;;10206065;28;93597;-66
2023/06/21 02:05:23;;;;;;;;;;;25.30;61.10;;;;;;10204670;28;94647;-65
2023/06/21 02:10:26;;;;;;;;;;;25.30;61.20;;;;;;10205328;28;93446;-65
2023/06/21 02:15:28;;;;;;;;;;;25.30;61.10;;;;;;10205170;28;93617;-65
2023/06/21 02:20:30;;;;;;;;;;;25.30;61.00;;;;;;10204860;28;93698;-66
2023/06/21 02:25:35;;;;;;;;;;;25.20;60.90;;;;;;10205610;28;94547;-65
2023/06/21 02:30:37;;;;;;;;;;;25.20;60.90;;;;;;10212003;28;93667;-65
2023/06/21 02:35:38;;;;;;;;;;;25.20;60.80;;;;;;10211993;28;94556;-66
2023/06/21 02:40:40;;;;;;;;;;;25.20;60.70;;;;;;10211654;28;94646;-65
2023/06/21 02:45:42;;;;;;;;;;;25.20;60.80;;;;;;10210003;28;96896;-65
2023/06/21 02:50:43;;;;;;;;;;;25.20;60.60;;;;;;10210665;28;93568;-65
2023/06/21 02:55:45;;;;;;;;;;;25.20;60.60;;;;;;10210884;28;93434;-66
2023/06/21 03:00:47;;;;;;;;;;;25.20;60.80;;;;;;10211564;28;93581;-65
2023/06/21 03:05:49;;;;;;;;;;;25.10;60.60;;;;;;10210965;28;94459;-65
2023/06/21 03:10:51;;;;;;;;;;;25.10;60.50;;;;;;10211395;28;94528;-64
2023/06/21 03:15:53;;;;;;;;;;;25.10;60.40;;;;;;10211573;28;94471;-65
2023/06/21 03:20:54;;;;;;;;;;;25.10;60.40;;;;;;10211550;28;93830;-65
2023/06/21 03:25:56;;;;;;;;;;;25.10;60.40;;;;;;10209640;28;93692;-64
2023/06/21 03:30:58;;;;;;;;;;;25.10;60.40;;;;;;10210652;28;94598;-66
2023/06/21 03:36:00;;;;;;;;;;;25.10;60.50;;;;;;10207294;28;97198;-64
2023/06/21 03:41:02;;;;;;;;;;;25.10;60.50;;;;;;10207310;28;93555;-64
2023/06/21 03:46:03;;;;;;;;;;;25.10;60.30;;;;;;10210056;28;93589;-64
2023/06/21 03:51:06;;;;;;;;;;;25.10;60.40;;;;;;10209522;28;92821;-64
2023/06/21 03:56:08;;;;;;;;;;;25.10;60.20;;;;;;10209372;28;92894;-64
2023/06/21 04:01:10;;;;;;;;;;;25.10;60.30;;;;;;10210148;28;93607;-64
2023/06/21 04:06:12;;;;;;;;;;;25.10;60.20;;;;;;10209307;28;93413;-65
2023/06/21 04:11:14;;;;;;;;;;;25.10;60.20;;;;;;10209965;28;93682;-64
2023/06/21 04:16:16;;;;;;;;;;;25.10;60.20;;;;;;10209176;28;93669;-65
2023/06/21 04:21:18;;;;;;;;;;;25.10;60.10;;;;;;10209500;28;92680;-65
2023/06/21 04:26:22;;;;;;;;;;;25.10;60.10;;;;;;10206741;28;96835;-65
2023/06/21 04:31:24;;;;;;;;;;;25.10;60.00;;;;;;10208316;28;92806;-64
2023/06/21 04:36:26;;;;;;;;;;;25.20;60.00;;;;;;10208623;28;93329;-65
2023/06/21 04:41:28;;;;;;;;;;;25.10;59.90;;;;;;10209442;28;94860;-65
2023/06/21 04:51:58;;;;;;;;;;;25.20;60.00;;;;;;10203672;28;95944;-65
2023/06/21 04:57:00;;;;;;;;;;;25.20;60.00;;;;;;10222768;28;93512;-66
2023/06/21 05:02:02;;;;;;;;;;;25.10;59.90;;;;;;10208342;28;93245;-66
2023/06/21 05:07:05;;;;;;;;;;;25.20;60.00;;;;;;10207223;28;93887;-63
2023/06/21 05:12:08;;;;;;;;;;;25.10;60.80;;;;;;10206995;28;94406;-66
2023/06/21 05:17:12;;;;;;;;;;;25.10;61.10;;;;;;10204634;28;96829;-66
2023/06/21 05:22:13;;;;;;;;;;;25.10;61.50;;;;;;10206895;28;92913;-65
2023/06/21 05:27:15;;;;;;;;;;;25.10;61.60;;;;;;10206913;28;93531;-66
2023/06/21 05:32:17;;;;;;;;;;;25.10;61.70;;;;;;10205636;28;93646;-66
2023/06/21 05:37:19;;;;;;;;;;;25.00;61.60;;;;;;10206502;28;94691;-65
2023/06/21 05:42:21;;;;;;;;;;;25.00;61.30;;;;;;10206858;28;93566;-66
2023/06/21 05:47:22;;;;;;;;;;;25.00;61.10;;;;;;10208704;28;92866;-65
2023/06/21 05:52:24;;;;;;;;;;;25.10;60.90;;;;;;10245883;28;93867;-66
2023/06/21 05:57:26;;;;;;;;;;;25.10;60.80;;;;;;10245721;28;93561;-65
2023/06/21 06:02:28;;;;;;;;;;;25.00;60.70;;;;;;10246749;28;93745;-64
2023/06/21 06:07:30;;;;;;;;;;;25.10;60.60;;;;;;10250385;28;96918;-65
2023/06/21 06:12:33;;;;;;;;;;;25.10;60.70;;;;;;10253309;28;94599;-66
2023/06/21 06:17:35;;;;;;;;;;;25.10;60.40;;;;;;10252391;28;94577;-66
2023/06/21 06:22:37;;;;;;;;;;;25.20;60.40;;;;;;10253198;28;93422;-65
2023/06/21 06:27:39;;;;;;;;;;;25.20;60.20;;;;;;10252473;28;94513;-66
2023/06/21 06:32:40;;;;;;;;;;;25.20;60.10;;;;;;10252951;28;94958;-65
2023/06/21 06:37:42;;;;;;;;;;;25.30;60.00;;;;;;10252089;28;92634;-65
2023/06/21 06:42:44;;;;;;;;;;;25.30;60.00;;;;;;10251737;28;92960;-65
2023/06/21 06:47:46;;;;;;;;;;;25.30;59.90;;;;;;10251971;28;93524;-65
2023/06/21 06:52:48;;;;;;;;;;;25.30;59.70;;;;;;10252043;28;93569;-65
2023/06/21 06:57:50;;;;;;;;;;;25.30;59.60;;;;;;10248526;28;95816;-66
2023/06/21 07:03:06;;;;;;;;;;;25.40;59.50;;;;;;10265268;28;93012;-65
2023/06/21 07:08:08;;;;;;;;;;;25.40;59.30;;;;;;10251814;28;94720;-65
2023/06/21 07:13:10;;;;;;;;;;;25.50;59.20;;;;;;10249707;28;94594;-65
2023/06/21 07:18:11;;;;;;;;;;;25.50;59.00;;;;;;10250576;28;94814;-65
2023/06/21 07:23:13;;;;;;;;;;;25.60;58.90;;;;;;10250739;28;94744;-65
2023/06/21 07:28:15;;;;;;;;;;;25.60;58.80;;;;;;10249428;28;93438;-66
2023/06/21 07:33:17;;;;;;;;;;;25.60;58.90;;;;;;10251718;28;92721;-65
2023/06/21 07:38:18;;;;;;;;;;;25.50;58.90;;;;;;10250753;28;94489;-65
2023/06/21 07:43:21;;;;;;;;;;;25.50;59.00;;;;;;10250338;28;93840;-65
2023/06/21 07:48:23;;;;;;;;;;;25.40;58.90;;;;;;10247610;28;96043;-65
2023/06/21 07:53:24;;;;;;;;;;;25.50;59.00;;;;;;10250570;28;92499;-66
2023/06/21 07:58:26;;;;;;;;;;;25.40;58.90;;;;;;10249768;28;94593;-65
2023/06/21 08:03:28;;;;;;;;;;;25.40;59.00;;;;;;10249971;28;94435;-66
2023/06/21 08:08:29;;;;;;;;;;;25.40;59.10;;;;;;10250502;28;94640;-65
2023/06/21 08:13:31;;;;;;;;;;;25.40;59.00;;;;;;10250205;28;93976;-66
2023/06/21 08:18:33;;;;;;;;;;;25.40;59.00;;;;;;10249032;28;94596;-65
2023/06/21 08:23:35;;;;;;;;;;;25.40;59.00;;;;;;10249859;28;93733;-66
2023/06/21 08:28:37;;;;;;;;;;;25.40;59.10;;;;;;10248229;28;94528;-66
2023/06/21 08:33:39;;;;;;;;;;;25.30;59.00;;;;;;10247920;28;93483;-66
2023/06/21 08:38:41;;;;;;;;;;;25.30;59.00;;;;;;10260390;28;95876;-65
2023/06/21 08:43:42;;;;;;;;;;;25.30;58.90;;;;;;10248915;28;94653;-64
2023/06/21 08:48:46;;;;;;;;;;;25.30;59.00;;;;;;10247556;28;94165;-65
2023/06/21 08:53:56;;;;;;;;;;;25.40;59.00;;;;;;10247606;28;94476;-65
2023/06/21 08:59:02;;;;;;;;;;;25.40;58.90;;;;;;10247577;28;94743;-65
2023/06/21 09:04:05;;;;;;;;;;;25.40;59.00;;;;;;10248606;28;94501;-65
2023/06/21 09:09:07;;;;;;;;;;;25.40;58.90;;;;;;10246345;28;93400;-65
2023/06/21 09:14:09;;;;;;;;;;;25.40;58.90;;;;;;10248035;28;93275;-65
2023/06/21 09:19:11;;;;;;;;;;;25.40;58.90;;;;;;10247995;28;94387;-65
2023/06/21 09:24:15;;;;;;;;;;;25.40;58.90;;;;;;10228987;28;112635;-65
2023/06/21 09:29:16;;;;;;;;;;;25.40;59.00;;;;;;10244266;28;96653;-66
2023/06/21 09:34:18;;;;;;;;;;;25.40;58.90;;;;;;10246912;28;93903;-66
2023/06/21 09:39:22;;;;;;;;;;;25.30;58.90;;;;;;10245551;28;93594;-65
2023/06/21 09:44:23;;;;;;;;;;;25.40;58.90;;;;;;10246743;28;93690;-65
2023/06/21 09:49:26;;;;;;;;;;;25.40;58.90;;;;;;10245969;28;92588;-65
2023/06/21 09:54:39;;;;;;;;;;;25.40;58.90;;;;;;10244992;28;93548;-65
2023/06/21 09:59:41;;;;;;;;;;;25.40;58.90;;;;;;10246534;28;94117;-66
2023/06/21 10:04:44;;;;;;;;;;;25.40;58.80;;;;;;10246525;28;92882;-65
2023/06/21 10:09:46;;;;;;;;;;;25.50;58.80;;;;;;10246250;28;94430;-65
2023/06/21 10:14:50;;;;;;;;;;;25.50;58.70;;;;;;10245784;28;93448;-65
2023/06/21 10:19:52;;;;;;;;;;;25.50;58.60;;;;;;10242541;28;97275;-65
2023/06/21 10:24:55;;;;;;;;;;;25.50;58.50;;;;;;10245747;28;94174;-65
2023/06/21 10:29:57;;;;;;;;;;;25.60;58.30;;;;;;10246090;28;93706;-65
2023/06/21 10:35:02;;;;;;;;;;;25.60;58.20;;;;;;10245357;28;94905;-64
2023/06/21 10:40:07;;;;;;;;;;;25.70;58.20;;;;;;10245034;28;94498;-66
2023/06/21 10:45:13;;;;;;;;;;;25.70;58.10;;;;;;10246211;28;95206;-66
2023/06/21 10:50:15;;;;;;;;;;;25.70;58.00;;;;;;10248154;28;94609;-65
2023/06/21 10:55:17;;;;;;;;;;;25.70;58.00;;;;;;10252683;28;94468;-65
2023/06/21 11:00:19;;;;;;;;;;;25.70;58.00;;;;;;10252002;28;92698;-65
2023/06/21 11:05:24;;;;;;;;;;;25.70;57.80;;;;;;10250561;28;93018;-65
2023/06/21 11:10:42;;;;;;;;;;;25.70;57.70;;;;;;10248223;28;95801;-65
2023/06/21 11:15:47;;;;;;;;;;;25.70;57.80;;;;;;10250617;28;93660;-65
2023/06/21 11:20:49;;;;;;;;;;;25.70;57.80;;;;;;10251516;28;94531;-65
2023/06/21 11:25:52;;;;;;;;;;;25.70;57.70;;;;;;10249363;28;94541;-65
2023/06/21 11:31:07;;;;;;;;;;;25.70;57.60;;;;;;10251140;28;94543;-65
2023/06/21 11:36:09;;;;;;;;;;;25.70;57.50;;;;;;10249453;28;92833;-65
2023/06/21 11:41:31;;;;;;;;;;;25.70;57.40;;;;;;10251294;28;94441;-65
2023/06/21 11:46:33;;;;;;;;;;;25.70;58.50;;;;;;10242537;28;92821;-65
2023/06/21 11:51:35;;;;;;;;;;;25.70;57.40;;;;;;10249446;28;94616;-65
2023/06/21 11:56:36;;;;;;;;;;;25.70;57.40;;;;;;10249753;28;93511;-65
2023/06/21 12:01:38;;;;;;;;;;;25.70;57.50;;;;;;10246445;28;96914;-65
2023/06/21 12:06:40;;;;;;;;;;;25.70;57.50;;;;;;10248845;28;94277;-65
2023/06/21 12:11:42;;;;;;;;;;;25.70;57.60;;;;;;10250145;28;94890;-65
2023/06/21 12:16:43;;;;;;;;;;;25.70;57.70;;;;;;10250090;28;94493;-65
2023/06/21 12:21:45;;;;;;;;;;;25.60;57.50;;;;;;10249832;28;94424;-64
2023/06/21 12:26:48;;;;;;;;;;;25.70;58.50;;;;;;10249451;28;93994;-65
2023/06/21 12:31:50;;;;;;;;;;;25.70;57.30;;;;;;10249402;28;93922;-64
2023/06/21 12:36:54;;;;;;;;;;;25.70;57.20;;;;;;10248773;28;92964;-65
2023/06/21 12:41:58;;;;;;;;;;;25.70;57.10;;;;;;10248940;28;94014;-65
2023/06/21 12:47:01;;;;;;;;;;;25.70;57.10;;;;;;10246162;28;93583;-64
2023/06/21 12:52:02;;;;;;;;;;;25.80;57.10;;;;;;10244752;28;95810;-65
2023/06/21 12:57:04;;;;;;;;;;;25.80;57.20;;;;;;10248198;28;94086;-65
2023/06/21 13:02:06;;;;;;;;;;;25.80;57.20;;;;;;10246631;28;93592;-65
2023/06/21 13:07:09;;;;;;;;;;;25.80;57.30;;;;;;10247809;28;93334;-65
2023/06/21 13:12:10;;;;;;;;;;;25.80;57.40;;;;;;10247527;28;93574;-65
2023/06/21 13:17:14;;;;;;;;;;;25.80;58.40;;;;;;10247340;28;94646;-65
2023/06/21 13:22:15;;;;;;;;;;;25.80;57.40;;;;;;10247916;28;93792;-64
2023/06/21 13:27:17;;;;;;;;;;;25.80;57.50;;;;;;10247617;28;93214;-64
2023/06/21 13:32:20;;;;;;;;;;;25.90;57.60;;;;;;10247249;28;93663;-65
2023/06/21 13:37:21;;;;;;;;;;;25.80;57.50;;;;;;10247380;28;94280;-65
2023/06/21 13:42:23;;;;;;;;;;;25.80;57.50;;;;;;10242925;28;94926;-65
2023/06/21 13:47:25;;;;;;;;;;;25.80;57.50;;;;;;10245923;28;94581;-65
2023/06/21 13:52:31;;;;;;;;;;;25.80;57.60;;;;;;10246914;28;93493;-66
2023/06/21 13:57:33;;;;;;;;;;;25.80;57.60;;;;;;10246772;28;93478;-66
2023/06/21 14:02:35;;;;;;;;;;;25.70;57.50;;;;;;10246569;28;93505;-66
2023/06/21 14:07:37;;;;;;;;;;;25.80;57.60;;;;;;10246535;28;93403;-65
2023/06/21 14:12:40;;;;;;;;;;;25.70;57.60;;;;;;10246452;28;94397;-65
2023/06/21 14:17:42;;;;;;;;;;;25.70;57.70;;;;;;10247034;28;93654;-65
2023/06/21 14:22:44;;;;;;;;;;;25.70;57.80;;;;;;10246125;28;93455;-66
2023/06/21 14:27:47;;;;;;;;;;;25.70;57.80;;;;;;10253269;28;94390;-65
2023/06/21 14:32:49;;;;;;;;;;;25.70;57.80;;;;;;10249836;28;96091;-65
2023/06/21 14:37:53;;;;;;;;;;;25.60;57.70;;;;;;10253366;28;93250;-65
2023/06/21 14:42:55;;;;;;;;;;;25.70;57.80;;;;;;10251855;28;93353;-65
2023/06/21 14:47:59;;;;;;;;;;;25.70;57.80;;;;;;10251490;28;93638;-65
2023/06/21 14:53:03;;;;;;;;;;;25.60;57.70;;;;;;10252524;28;94417;-65
2023/06/21 14:58:05;;;;;;;;;;;25.60;57.70;;;;;;10251666;28;93444;-65
2023/06/21 15:03:08;;;;;;;;;;;25.60;57.80;;;;;;10251449;28;94460;-66
2023/06/21 15:08:09;;;;;;;;;;;25.60;57.80;;;;;;10253009;28;93806;-65
2023/06/21 15:13:11;;;;;;;;;;;25.60;57.70;;;;;;10251359;28;93454;-65
2023/06/21 15:18:13;;;;;;;;;;;25.60;57.60;;;;;;10251276;28;94416;-63
2023/06/21 15:23:15;;;;;;;;;;;25.60;57.50;;;;;;10248630;28;96776;-65
2023/06/21 15:28:17;;;;;;;;;;;25.60;55.80;;;;;;10250788;28;94222;-65
2023/06/21 15:33:19;;;;;;;;;;;25.40;55.40;;;;;;10266026;28;94246;-66
2023/06/21 15:38:21;;;;;;;;;;;25.20;55.80;;;;;;10248744;28;94738;-66
2023/06/21 15:43:23;;;;;;;;;;;25.20;55.50;;;;;;10250960;28;93409;-63
2023/06/21 15:48:24;;;;;;;;;;;25.10;56.10;;;;;;10249152;28;94546;-65
2023/06/21 15:53:26;;;;;;;;;;;25.10;55.70;;;;;;10238341;28;93494;-65
2023/06/21 15:58:28;;;;;;;;;;;25.10;55.50;;;;;;10207509;28;92779;-66
2023/06/21 16:03:30;;;;;;;;;;;25.10;55.80;;;;;;10207144;28;94252;-65
2023/06/21 16:08:31;;;;;;;;;;;25.00;56.60;;;;;;10207497;28;93677;-64
2023/06/21 16:13:33;;;;;;;;;;;25.00;56.80;;;;;;10219966;28;96384;-64
2023/06/21 16:18:52;;;;;;;;;;;25.00;56.30;;;;;;10205972;28;93522;-65
2023/06/21 16:23:54;;;;;;;;;;;24.90;55.80;;;;;;10205323;28;94862;-63
2023/06/21 16:28:56;;;;;;;;;;;24.90;55.90;;;;;;10226480;28;93731;-63
2023/06/21 16:33:58;;;;;;;;;;;24.90;55.70;;;;;;10246576;28;94544;-65
2023/06/21 16:39:00;;;;;;;;;;;25.00;55.70;;;;;;10249002;28;94652;-65
2023/06/21 16:44:02;;;;;;;;;;;25.00;55.80;;;;;;10248463;28;94492;-65
2023/06/21 16:49:03;;;;;;;;;;;25.00;55.30;;;;;;10261520;28;92681;-60
2023/06/21 16:54:05;;;;;;;;;;;24.90;55.20;;;;;;10289328;28;94833;-60
2023/06/21 16:59:08;;;;;;;;;;;24.90;55.40;;;;;;10270682;28;92848;-65
2023/06/21 17:04:10;;;;;;;;;;;24.90;55.40;;;;;;10285732;28;95876;-66
2023/06/21 17:09:11;;;;;;;;;;;25.00;54.60;;;;;;10288779;28;96232;-66
2023/06/21 17:14:13;;;;;;;;;;;24.90;54.80;;;;;;10286939;28;94236;-66
2023/06/21 17:19:15;;;;;;;;;;;25.00;54.50;;;;;;10288503;28;94446;-65
2023/06/21 17:24:17;;;;;;;;;;;24.90;54.30;;;;;;10287184;28;93702;-65
2023/06/21 17:29:19;;;;;;;;;;;24.90;54.10;;;;;;10287737;28;94405;-65
2023/06/21 17:34:21;;;;;;;;;;;24.90;54.30;;;;;;10287649;28;94325;-65
2023/06/21 17:39:22;;;;;;;;;;;24.90;54.50;;;;;;10287536;28;92766;-66
2023/06/21 17:44:26;;;;;;;;;;;24.90;54.30;;;;;;10286899;28;93896;-66
2023/06/21 17:49:28;;;;;;;;;;;25.00;54.00;;;;;;10285645;28;93993;-66
2023/06/21 17:54:29;;;;;;;;;;;24.90;54.10;;;;;;10284283;28;96974;-66
2023/06/21 17:59:31;;;;;;;;;;;25.00;54.10;;;;;;10288768;28;94513;-66
2023/06/21 18:04:33;;;;;;;;;;;25.00;53.80;;;;;;10294082;28;94569;-66
2023/06/21 18:09:35;;;;;;;;;;;25.00;54.00;;;;;;10276116;28;94434;-65
2023/06/21 18:14:37;;;;;;;;;;;25.10;53.70;;;;;;10291818;28;93374;-66
2023/06/21 18:19:39;;;;;;;;;;;25.10;53.50;;;;;;10293867;28;93518;-66
2023/06/21 18:24:41;;;;;;;;;;;25.20;53.40;;;;;;10274711;28;95570;-66
2023/06/21 18:29:43;;;;;;;;;;;25.30;53.00;;;;;;10294517;28;94201;-66
2023/06/21 18:35:02;;;;;;;;;;;25.30;52.60;;;;;;10292262;28;94627;-65
2023/06/21 18:40:04;;;;;;;;;;;25.30;52.20;;;;;;10293603;28;94610;-66
2023/06/21 18:45:06;;;;;;;;;;;25.30;52.40;;;;;;10290178;28;96844;-66
2023/06/21 18:50:08;;;;;;;;;;;25.20;52.00;;;;;;10290943;28;94125;-66
2023/06/21 18:55:11;;;;;;;;;;;25.20;51.80;;;;;;10292331;28;93659;-65
2023/06/21 19:00:13;;;;;;;;;;;25.10;51.70;;;;;;10291130;28;93487;-66
2023/06/21 19:05:15;;;;;;;;;;;25.10;51.80;;;;;;10292613;28;92989;-65
2023/06/21 19:10:17;;;;;;;;;;;25.00;52.10;;;;;;10291946;28;93467;-66
2023/06/21 19:15:18;;;;;;;;;;;25.00;52.80;;;;;;10291560;28;94589;-66
2023/06/21 19:20:20;;;;;;;;;;;24.90;53.20;;;;;;10292757;28;92799;-65
2023/06/21 19:25:22;;;;;;;;;;;24.90;53.70;;;;;;10273427;28;94582;-66
2023/06/21 19:30:24;;;;;;;;;;;24.90;54.00;;;;;;10290456;28;93513;-66
2023/06/21 19:35:26;;;;;;;;;;;24.90;54.40;;;;;;10288914;28;97093;-65
2023/06/21 19:40:28;;;;;;;;;;;24.80;54.70;;;;;;10291538;28;94500;-61
2023/06/21 19:45:30;;;;;;;;;;;24.90;55.20;;;;;;10291434;28;93462;-66
2023/06/21 19:50:32;;;;;;;;;;;24.80;55.20;;;;;;10289845;28;94188;-66
2023/06/21 19:55:34;;;;;;;;;;;24.80;55.30;;;;;;10289900;28;93968;-65
2023/06/21 20:00:36;;;;;;;;;;;24.80;55.70;;;;;;10291097;28;93650;-66
2023/06/21 20:05:38;;;;;;;;;;;24.80;55.70;;;;;;10289626;28;93477;-66
2023/06/21 20:10:39;;;;;;;;;;;24.80;55.90;;;;;;10290453;28;92965;-66
2023/06/21 20:15:43;;;;;;;;;;;24.80;56.00;;;;;;10290332;28;93098;-67
2023/06/21 20:20:45;;;;;;;;;;;24.80;56.20;;;;;;10287496;28;93695;-66
2023/06/21 20:25:46;;;;;;;;;;;24.80;56.10;;;;;;10269296;28;95902;-66
2023/06/21 20:30:48;;;;;;;;;;;24.90;56.30;;;;;;10287843;28;94834;-66
2023/06/21 20:35:51;;;;;;;;;;;24.90;56.20;;;;;;10287881;28;93381;-66
2023/06/21 20:40:59;;;;;;;;;;;24.90;56.10;;;;;;10289094;28;93523;-64
2023/06/21 20:46:04;;;;;;;;;;;25.00;56.10;;;;;;10288656;28;93734;-64
2023/06/21 20:51:05;;;;;;;;;;;25.00;56.10;;;;;;10288151;28;94495;-64
2023/06/21 20:56:07;;;;;;;;;;;25.10;56.10;;;;;;10287939;28;93589;-64
2023/06/21 21:01:13;;;;;;;;;;;25.10;56.00;;;;;;10288564;28;92846;-65
2023/06/21 21:06:15;;;;;;;;;;;25.10;56.00;;;;;;10271009;28;94982;-64
2023/06/21 21:11:17;;;;;;;;;;;25.10;56.00;;;;;;10270423;28;95832;-65
2023/06/21 21:16:19;;;;;;;;;;;25.10;56.00;;;;;;10284197;28;96250;-65
2023/06/21 21:21:20;;;;;;;;;;;25.10;55.90;;;;;;10287335;28;94315;-64
2023/06/21 21:26:22;;;;;;;;;;;25.20;56.00;;;;;;10287303;28;93569;-64
2023/06/21 21:31:24;;;;;;;;;;;25.20;56.00;;;;;;10286973;28;94549;-64
2023/06/21 21:36:26;;;;;;;;;;;25.20;56.00;;;;;;10285287;28;93313;-65
2023/06/21 21:41:27;;;;;;;;;;;25.20;56.00;;;;;;10285200;28;93785;-66
2023/06/21 21:46:29;;;;;;;;;;;25.20;56.00;;;;;;10287398;28;94719;-65
2023/06/21 21:51:31;;;;;;;;;;;25.20;55.90;;;;;;10286826;28;93255;-65
2023/06/21 21:56:33;;;;;;;;;;;25.20;56.00;;;;;;10286656;28;93709;-65
2023/06/21 22:01:35;;;;;;;;;;;25.20;56.00;;;;;;10286378;28;93815;-65
2023/06/21 22:06:36;;;;;;;;;;;25.10;55.90;;;;;;10284266;28;97353;-65
2023/06/21 22:11:38;;;;;;;;;;;25.20;56.00;;;;;;10285607;28;93762;-65
2023/06/21 22:16:40;;;;;;;;;;;25.20;56.00;;;;;;10286270;28;93580;-66
2023/06/21 22:21:41;;;;;;;;;;;25.20;56.00;;;;;;10285606;28;96622;-65
2023/06/21 22:26:43;;;;;;;;;;;25.20;56.00;;;;;;10285592;28;93694;-65
2023/06/21 22:31:46;;;;;;;;;;;25.20;56.00;;;;;;10285791;28;94595;-65
2023/06/21 22:36:48;;;;;;;;;;;25.20;56.00;;;;;;10285513;28;93663;-65
2023/06/21 22:41:50;;;;;;;;;;;25.20;56.10;;;;;;10287122;28;93743;-65
2023/06/21 22:46:52;;;;;;;;;;;25.20;56.00;;;;;;10272127;28;94657;-65
2023/06/21 22:51:54;;;;;;;;;;;25.20;56.10;;;;;;10292367;28;93669;-65
2023/06/21 22:56:56;;;;;;;;;;;25.20;56.20;;;;;;10290448;28;96836;-66
2023/06/21 23:01:57;;;;;;;;;;;25.10;56.10;;;;;;10291065;28;93520;-66
2023/06/21 23:07:01;;;;;;;;;;;25.20;56.30;;;;;;10274282;28;93834;-65
2023/06/21 23:12:03;;;;;;;;;;;25.10;56.20;;;;;;10290904;28;94576;-65
2023/06/21 23:17:08;;;;;;;;;;;25.10;56.20;;;;;;10291888;28;94492;-64
2023/06/21 23:22:11;;;;;;;;;;;25.10;56.20;;;;;;10289780;28;94736;-64
2023/06/21 23:27:14;;;;;;;;;;;25.10;56.20;;;;;;10290524;28;93464;-65
2023/06/21 23:32:24;;;;;;;;;;;25.10;56.30;;;;;;10291100;28;92374;-64
2023/06/21 23:37:28;;;;;;;;;;;25.10;56.30;;;;;;10290465;28;94546;-65
2023/06/21 23:42:30;;;;;;;;;;;25.10;56.40;;;;;;10289986;28;93711;-64
2023/06/21 23:47:32;;;;;;;;;;;25.10;56.50;;;;;;10285011;28;97015;-64
2023/06/21 23:52:34;;;;;;;;;;;25.10;56.40;;;;;;10289934;28;94771;-65
2023/06/21 23:57:36;;;;;;;;;;;25.10;56.60;;;;;;10288594;28;93522;-65
